Terminal Aerodrome Forecast
Issued by NWS

Home | Current Version | Previous Version | Text Only | Print | Product List | Glossary On
Versions: 1 2 3 4 5 6 7 8 9 10 11 12 13 14
000
FTUS43 KGLD 301721
TAFMCK
TAF
KMCK 301721Z 3018/3118 33019G23KT P6SM SKC
     FM310000 01007KT P6SM FEW200
     FM310900 02005KT 5SM BR BKN005
     FM311600 11006KT P6SM BKN008=

USA.gov is the U.S. government's official web portal to all federal, state and local government web resources and services.